Atlantic Star — WDB5271 — position and weather

sailwx.info

Track history (hours):
 
Tides and Currents Weather Stations Pressure Air Temp Water Temp Dewpoint Dewpoint Depression Visibility Wind Speed Wind Dir Waves Ship Positions

Atlantic Star

Owner: J J C BOATS INC, CAPE MAY, NJ. More information available from US FCC via Universal Licensing System and Coast Guard Vessel Documentation Center.

Last reported at 2018-Jun-24 16:11 UTC. Time now 2018-Jun-25 19:49 UTC.
Position N 38°57' W 074°52'.

Length 27 m.

Type: Passenger vessel. MMSI: 366907790.

Date/timePositionNaut miles runAvg speedWind from/ knotsBaromVisibWave heightAir tempDewpointWater temp
2018-Jun-24 16:11N 38°57' W 074°52'311.4
2018-Jun-24 15:57N 38°55' W 074°50'7 8.8
2018-Jun-24 15:10N 38°57' W 074°59'0 1.4
2018-Jun-24 15:00N 38°57' W 074°59'5 7.4
2018-Jun-24 14:17N 38°58' W 074°52'  
2018-Jun-20 23:01N 38°56' W 074°57'0 7.9
2018-Jun-20 23:00N 38°56' W 074°57'4 7.0
2018-Jun-20 22:29N 38°56' W 074°52'3 1.2
2018-Jun-20 19:58N 38°59' W 074°50'3 7.2
2018-Jun-20 19:29N 38°55' W 074°51'510.4
2018-Jun-20 18:58N 38°50' W 074°51'511.4
2018-Jun-20 18:30N 38°53' W 074°56'3 6.3
2018-Jun-20 17:59N 38°56' W 074°58'4 9.1
2018-Jun-20 17:30N 38°56' W 074°53'3 0.9
2018-Jun-20 14:16N 38°59' W 074°51'  
Track history (hours):
 
Tides and Currents Weather Stations Pressure Air Temp Water Temp Dewpoint Dewpoint Depression Visibility Wind Speed Wind Dir Waves Ship Positions

Atlantic Star

Owner: J J C BOATS INC, CAPE MAY, NJ. More information available from US FCC via Universal Licensing System and Coast Guard Vessel Documentation Center.

Last reported at 2018-Jun-24 16:11 UTC. Time now 2018-Jun-25 19:49 UTC.
Position N 38°57' W 074°52'.

Length 27 m.

Type: Passenger vessel. MMSI: 366907790.

Date/timePositionNaut miles runAvg speedWind from/ knotsBaromVisibWave heightAir tempDewpointWater temp
2018-Jun-24 16:11N 38°57' W 074°52'311.4
2018-Jun-24 15:57N 38°55' W 074°50'7 8.8
2018-Jun-24 15:10N 38°57' W 074°59'0 1.4
2018-Jun-24 15:00N 38°57' W 074°59'5 7.4
2018-Jun-24 14:17N 38°58' W 074°52'  
2018-Jun-20 23:01N 38°56' W 074°57'0 7.9
2018-Jun-20 23:00N 38°56' W 074°57'4 7.0
2018-Jun-20 22:29N 38°56' W 074°52'3 1.2
2018-Jun-20 19:58N 38°59' W 074°50'3 7.2
2018-Jun-20 19:29N 38°55' W 074°51'510.4
2018-Jun-20 18:58N 38°50' W 074°51'511.4
2018-Jun-20 18:30N 38°53' W 074°56'3 6.3
2018-Jun-20 17:59N 38°56' W 074°58'4 9.1
2018-Jun-20 17:30N 38°56' W 074°53'3 0.9
2018-Jun-20 14:16N 38°59' W 074°51'  

Dump ship's entire track history